Sumatra, Florida
Current Conditions -  °F | °C
As of 3:14 PM on Sunday 21 Dec 2014 (Local Time) from KAAF Reporting Station
Haze Haze  
Wind Chill: 61°   Ceiling: 300
Heat Index: 61°   Visibility: 1.7mi
Dew Point: 58°   Wind: 7mph
Humidity: 90%   Direction: 50°NE
Pressure: 30"   Gusts: NA
Location:  30.02°N, 84.98°W
Report Text: KAAF 212014Z AUTO 05006KT 1 3/4SM BR OVC003 16/14 A3000 RMK AO2 RAE01 P0000 T01610144 TSNO
Loading
Personal Weather Stations






























Interactive Weather Map New forecast layout! Learn more

10-Day Weather Forecast

Advertisements
Track Severe Weather on mobile